Oakland, California
Current Conditions -  °F | °C
As of 7:53 PM on Friday 19 Dec 2014 (Local Time) from KOAK Reporting Station
Haze Haze  
Wind Chill: 13°   Ceiling: 500
Heat Index: 13°   Visibility: 3mi
Dew Point: 12°   Wind: 10mph
Humidity: 96%   Direction: 150°SSE
Pressure: 30.12"   Gusts: NA
Location:  37.81°N, 122.27°W
Report Text: KOAK 200353Z 15009KT 3SM BR BKN005 OVC011 13/12 A3012 RMK AO2 CIG 003V006 SLP200 T01280122
Loading
Personal Weather Stations






























Interactive Weather Map New forecast layout! Learn more

10-Day Weather Forecast

Advertisements
Track Severe Weather on mobile